sensor_id;sensor_type;location;lat;lon;timestamp;temperature;humidity
18105;DHT22;9179;50.968;3.134;2023-03-29T00:00:55;10.80;99.90
18105;DHT22;9179;50.968;3.134;2023-03-29T00:03:24;10.90;99.90
18105;DHT22;9179;50.968;3.134;2023-03-29T00:05:52;10.90;99.90
18105;DHT22;9179;50.968;3.134;2023-03-29T00:08:27;10.80;99.90
18105;DHT22;9179;50.968;3.134;2023-03-29T00:10:56;10.90;99.90
18105;DHT22;9179;50.968;3.134;2023-03-29T00:13:24;10.90;99.90
18105;DHT22;9179;50.968;3.134;2023-03-29T00:15:51;10.80;99.90
18105;DHT22;9179;50.968;3.134;2023-03-29T00:18:18;10.80;99.90
18105;DHT22;9179;50.968;3.134;2023-03-29T00:20:45;10.80;99.90
18105;DHT22;9179;50.968;3.134;2023-03-29T00:23:14;10.80;99.90
18105;DHT22;9179;50.968;3.134;2023-03-29T00:25:43;10.90;99.90
18105;DHT22;9179;50.968;3.134;2023-03-29T00:28:11;10.90;99.90
18105;DHT22;9179;50.968;3.134;2023-03-29T00:30:39;10.90;99.90
18105;DHT22;9179;50.968;3.134;2023-03-29T00:33:06;10.80;99.90
18105;DHT22;9179;50.968;3.134;2023-03-29T00:35:33;10.90;99.90
18105;DHT22;9179;50.968;3.134;2023-03-29T00:38:00;10.90;99.90
18105;DHT22;9179;50.968;3.134;2023-03-29T00:40:29;10.90;99.90
18105;DHT22;9179;50.968;3.134;2023-03-29T00:42:56;10.90;99.90
18105;DHT22;9179;50.968;3.134;2023-03-29T00:45:23;10.90;99.90
18105;DHT22;9179;50.968;3.134;2023-03-29T00:47:55;10.80;99.90
18105;DHT22;9179;50.968;3.134;2023-03-29T00:50:24;10.90;99.90
18105;DHT22;9179;50.968;3.134;2023-03-29T00:52:57;10.90;99.90
18105;DHT22;9179;50.968;3.134;2023-03-29T00:55:27;11.00;99.90
18105;DHT22;9179;50.968;3.134;2023-03-29T00:57:57;11.00;99.90
18105;DHT22;9179;50.968;3.134;2023-03-29T01:00:31;11.10;99.90
18105;DHT22;9179;50.968;3.134;2023-03-29T01:03:03;11.20;99.90
18105;DHT22;9179;50.968;3.134;2023-03-29T01:05:36;11.20;99.90
18105;DHT22;9179;50.968;3.134;2023-03-29T01:08:07;11.20;99.90
18105;DHT22;9179;50.968;3.134;2023-03-29T01:10:39;11.10;99.90
18105;DHT22;9179;50.968;3.134;2023-03-29T01:13:10;11.20;99.90
18105;DHT22;9179;50.968;3.134;2023-03-29T01:15:41;11.20;99.90
18105;DHT22;9179;50.968;3.134;2023-03-29T01:18:09;11.20;99.90
18105;DHT22;9179;50.968;3.134;2023-03-29T01:20:44;11.20;99.90
18105;DHT22;9179;50.968;3.134;2023-03-29T01:23:36;11.20;99.90
18105;DHT22;9179;50.968;3.134;2023-03-29T01:26:13;11.20;99.90
18105;DHT22;9179;50.968;3.134;2023-03-29T01:28:48;11.20;99.90
18105;DHT22;9179;50.968;3.134;2023-03-29T01:31:21;11.20;99.90
18105;DHT22;9179;50.968;3.134;2023-03-29T01:33:52;11.20;99.90
18105;DHT22;9179;50.968;3.134;2023-03-29T01:36:24;11.20;99.90
18105;DHT22;9179;50.968;3.134;2023-03-29T01:38:56;11.20;99.90
18105;DHT22;9179;50.968;3.134;2023-03-29T01:41:27;11.20;99.90
18105;DHT22;9179;50.968;3.134;2023-03-29T01:44:03;11.20;99.90
18105;DHT22;9179;50.968;3.134;2023-03-29T01:46:36;11.30;99.90
18105;DHT22;9179;50.968;3.134;2023-03-29T01:49:09;11.40;99.90
18105;DHT22;9179;50.968;3.134;2023-03-29T01:51:40;11.40;99.90
18105;DHT22;9179;50.968;3.134;2023-03-29T01:54:12;11.30;99.90
18105;DHT22;9179;50.968;3.134;2023-03-29T01:56:42;11.30;99.90
18105;DHT22;9179;50.968;3.134;2023-03-29T01:59:16;11.30;99.90
18105;DHT22;9179;50.968;3.134;2023-03-29T02:01:47;11.30;99.90
18105;DHT22;9179;50.968;3.134;2023-03-29T02:04:17;11.30;99.90
18105;DHT22;9179;50.968;3.134;2023-03-29T02:06:45;11.30;99.90
18105;DHT22;9179;50.968;3.134;2023-03-29T02:09:15;11.30;99.90
18105;DHT22;9179;50.968;3.134;2023-03-29T02:11:42;11.30;99.90
18105;DHT22;9179;50.968;3.134;2023-03-29T02:14:11;11.30;99.90
18105;DHT22;9179;50.968;3.134;2023-03-29T02:16:40;11.30;99.90
18105;DHT22;9179;50.968;3.134;2023-03-29T02:19:07;11.30;99.90
18105;DHT22;9179;50.968;3.134;2023-03-29T02:21:40;11.30;99.90
18105;DHT22;9179;50.968;3.134;2023-03-29T02:24:15;11.30;99.90
18105;DHT22;9179;50.968;3.134;2023-03-29T02:26:43;11.20;99.90
18105;DHT22;9179;50.968;3.134;2023-03-29T02:29:11;11.20;99.90
18105;DHT22;9179;50.968;3.134;2023-03-29T02:31:42;11.20;99.90
18105;DHT22;9179;50.968;3.134;2023-03-29T02:34:15;11.30;99.90
18105;DHT22;9179;50.968;3.134;2023-03-29T02:36:46;11.30;99.90
18105;DHT22;9179;50.968;3.134;2023-03-29T02:39:16;11.30;99.90
18105;DHT22;9179;50.968;3.134;2023-03-29T02:41:46;11.30;99.90
18105;DHT22;9179;50.968;3.134;2023-03-29T02:44:17;11.30;99.90
18105;DHT22;9179;50.968;3.134;2023-03-29T02:46:48;11.30;99.90
18105;DHT22;9179;50.968;3.134;2023-03-29T02:49:16;11.30;99.90
18105;DHT22;9179;50.968;3.134;2023-03-29T02:51:44;11.20;99.90
18105;DHT22;9179;50.968;3.134;2023-03-29T02:54:14;11.20;99.90
18105;DHT22;9179;50.968;3.134;2023-03-29T02:56:43;11.20;99.90
18105;DHT22;9179;50.968;3.134;2023-03-29T02:59:11;11.20;99.90
18105;DHT22;9179;50.968;3.134;2023-03-29T03:01:39;11.30;99.90
18105;DHT22;9179;50.968;3.134;2023-03-29T03:04:07;11.30;99.90
18105;DHT22;9179;50.968;3.134;2023-03-29T03:06:34;11.30;99.90
18105;DHT22;9179;50.968;3.134;2023-03-29T03:09:01;11.40;99.90
18105;DHT22;9179;50.968;3.134;2023-03-29T03:11:29;11.50;99.90
18105;DHT22;9179;50.968;3.134;2023-03-29T03:13:56;11.50;99.90
18105;DHT22;9179;50.968;3.134;2023-03-29T03:16:23;11.50;99.90
18105;DHT22;9179;50.968;3.134;2023-03-29T03:18:52;11.60;99.90
18105;DHT22;9179;50.968;3.134;2023-03-29T03:21:19;11.60;99.90
18105;DHT22;9179;50.968;3.134;2023-03-29T03:23:46;11.60;99.90
18105;DHT22;9179;50.968;3.134;2023-03-29T03:26:15;11.60;99.90
18105;DHT22;9179;50.968;3.134;2023-03-29T03:28:42;11.60;99.90
18105;DHT22;9179;50.968;3.134;2023-03-29T03:31:11;11.60;99.90
18105;DHT22;9179;50.968;3.134;2023-03-29T03:33:38;11.50;99.90
18105;DHT22;9179;50.968;3.134;2023-03-29T03:36:07;11.50;99.90
18105;DHT22;9179;50.968;3.134;2023-03-29T03:38:35;11.50;99.90
18105;DHT22;9179;50.968;3.134;2023-03-29T03:41:03;11.50;99.90
18105;DHT22;9179;50.968;3.134;2023-03-29T03:43:30;11.50;99.90
18105;DHT22;9179;50.968;3.134;2023-03-29T03:45:57;11.50;99.90
18105;DHT22;9179;50.968;3.134;2023-03-29T03:48:24;11.50;99.90
18105;DHT22;9179;50.968;3.134;2023-03-29T03:50:53;11.50;99.90
18105;DHT22;9179;50.968;3.134;2023-03-29T03:53:22;11.60;99.90
18105;DHT22;9179;50.968;3.134;2023-03-29T03:55:49;11.60;99.90
18105;DHT22;9179;50.968;3.134;2023-03-29T03:58:17;11.50;99.90
18105;DHT22;9179;50.968;3.134;2023-03-29T04:00:47;11.60;99.90
18105;DHT22;9179;50.968;3.134;2023-03-29T04:03:14;11.60;99.90
18105;DHT22;9179;50.968;3.134;2023-03-29T04:05:43;11.50;99.90
18105;DHT22;9179;50.968;3.134;2023-03-29T04:08:11;11.60;99.90
18105;DHT22;9179;50.968;3.134;2023-03-29T04:10:40;11.70;99.90
18105;DHT22;9179;50.968;3.134;2023-03-29T04:13:08;11.70;99.90
18105;DHT22;9179;50.968;3.134;2023-03-29T04:15:35;11.80;99.90
18105;DHT22;9179;50.968;3.134;2023-03-29T04:18:03;11.70;99.90
18105;DHT22;9179;50.968;3.134;2023-03-29T04:20:30;11.70;99.90
18105;DHT22;9179;50.968;3.134;2023-03-29T04:22:57;11.70;99.90
18105;DHT22;9179;50.968;3.134;2023-03-29T04:25:24;11.70;99.90
18105;DHT22;9179;50.968;3.134;2023-03-29T04:27:53;11.70;99.90
18105;DHT22;9179;50.968;3.134;2023-03-29T04:30:20;11.70;99.90
18105;DHT22;9179;50.968;3.134;2023-03-29T04:32:47;11.70;99.90
18105;DHT22;9179;50.968;3.134;2023-03-29T04:35:14;11.70;99.90
18105;DHT22;9179;50.968;3.134;2023-03-29T04:37:41;11.70;99.90
18105;DHT22;9179;50.968;3.134;2023-03-29T04:40:09;11.60;99.90
18105;DHT22;9179;50.968;3.134;2023-03-29T04:42:39;11.70;99.90
18105;DHT22;9179;50.968;3.134;2023-03-29T04:45:10;11.70;99.90
18105;DHT22;9179;50.968;3.134;2023-03-29T04:47:38;11.70;99.90
18105;DHT22;9179;50.968;3.134;2023-03-29T04:50:07;11.70;99.90
18105;DHT22;9179;50.968;3.134;2023-03-29T04:52:34;11.70;99.90
18105;DHT22;9179;50.968;3.134;2023-03-29T04:55:01;11.80;99.90
18105;DHT22;9179;50.968;3.134;2023-03-29T04:57:29;11.80;99.90
18105;DHT22;9179;50.968;3.134;2023-03-29T04:59:56;11.80;99.90
18105;DHT22;9179;50.968;3.134;2023-03-29T05:02:24;11.80;99.90
18105;DHT22;9179;50.968;3.134;2023-03-29T05:04:51;11.80;99.90
18105;DHT22;9179;50.968;3.134;2023-03-29T05:07:18;11.90;99.90
18105;DHT22;9179;50.968;3.134;2023-03-29T05:09:45;11.90;99.90
18105;DHT22;9179;50.968;3.134;2023-03-29T05:12:12;12.00;99.90
18105;DHT22;9179;50.968;3.134;2023-03-29T05:14:39;12.00;99.90
18105;DHT22;9179;50.968;3.134;2023-03-29T05:17:06;12.00;99.90
18105;DHT22;9179;50.968;3.134;2023-03-29T05:19:35;11.90;99.90
18105;DHT22;9179;50.968;3.134;2023-03-29T05:22:02;11.90;99.90
18105;DHT22;9179;50.968;3.134;2023-03-29T05:24:29;11.80;99.90
18105;DHT22;9179;50.968;3.134;2023-03-29T05:26:56;11.80;99.90
18105;DHT22;9179;50.968;3.134;2023-03-29T05:29:24;11.80;99.90
18105;DHT22;9179;50.968;3.134;2023-03-29T05:31:51;11.80;99.90
18105;DHT22;9179;50.968;3.134;2023-03-29T05:34:18;11.80;99.90
18105;DHT22;9179;50.968;3.134;2023-03-29T05:36:47;11.70;99.90
18105;DHT22;9179;50.968;3.134;2023-03-29T05:39:14;11.70;99.90
18105;DHT22;9179;50.968;3.134;2023-03-29T05:41:40;11.70;99.90
18105;DHT22;9179;50.968;3.134;2023-03-29T05:44:07;11.70;99.90
18105;DHT22;9179;50.968;3.134;2023-03-29T05:46:35;11.80;99.90
18105;DHT22;9179;50.968;3.134;2023-03-29T05:49:03;11.80;99.90
18105;DHT22;9179;50.968;3.134;2023-03-29T05:51:31;11.80;99.90
18105;DHT22;9179;50.968;3.134;2023-03-29T05:53:59;11.80;99.90
18105;DHT22;9179;50.968;3.134;2023-03-29T05:56:26;11.90;99.90
18105;DHT22;9179;50.968;3.134;2023-03-29T05:58:53;11.90;99.90
18105;DHT22;9179;50.968;3.134;2023-03-29T06:01:21;11.90;99.90
18105;DHT22;9179;50.968;3.134;2023-03-29T06:03:49;12.00;99.90
18105;DHT22;9179;50.968;3.134;2023-03-29T06:06:16;12.00;99.90
18105;DHT22;9179;50.968;3.134;2023-03-29T06:08:43;11.90;99.90
18105;DHT22;9179;50.968;3.134;2023-03-29T06:11:13;11.60;99.90
18105;DHT22;9179;50.968;3.134;2023-03-29T06:13:40;11.60;99.90
18105;DHT22;9179;50.968;3.134;2023-03-29T06:16:08;11.80;99.90
18105;DHT22;9179;50.968;3.134;2023-03-29T06:18:36;11.90;99.90
18105;DHT22;9179;50.968;3.134;2023-03-29T06:21:05;11.80;99.90
18105;DHT22;9179;50.968;3.134;2023-03-29T06:23:33;11.90;99.90
18105;DHT22;9179;50.968;3.134;2023-03-29T06:26:01;11.90;99.90
18105;DHT22;9179;50.968;3.134;2023-03-29T06:28:29;11.80;99.90
18105;DHT22;9179;50.968;3.134;2023-03-29T06:30:56;11.80;99.90
18105;DHT22;9179;50.968;3.134;2023-03-29T06:33:26;11.90;99.90
18105;DHT22;9179;50.968;3.134;2023-03-29T06:35:53;12.10;99.90
18105;DHT22;9179;50.968;3.134;2023-03-29T06:38:20;12.40;99.90
18105;DHT22;9179;50.968;3.134;2023-03-29T06:40:47;12.70;99.90
18105;DHT22;9179;50.968;3.134;2023-03-29T06:43:14;12.90;99.90
18105;DHT22;9179;50.968;3.134;2023-03-29T06:45:43;13.10;99.90
18105;DHT22;9179;50.968;3.134;2023-03-29T06:48:10;13.00;99.90
18105;DHT22;9179;50.968;3.134;2023-03-29T06:50:37;13.00;99.90
18105;DHT22;9179;50.968;3.134;2023-03-29T06:53:04;13.00;99.90
18105;DHT22;9179;50.968;3.134;2023-03-29T06:55:31;13.00;99.90
18105;DHT22;9179;50.968;3.134;2023-03-29T06:57:57;12.90;99.90
18105;DHT22;9179;50.968;3.134;2023-03-29T07:00:25;13.10;99.90
18105;DHT22;9179;50.968;3.134;2023-03-29T07:02:57;13.30;99.90
18105;DHT22;9179;50.968;3.134;2023-03-29T07:05:26;13.50;99.90
18105;DHT22;9179;50.968;3.134;2023-03-29T07:07:54;13.60;99.90
18105;DHT22;9179;50.968;3.134;2023-03-29T07:10:26;13.40;99.90
18105;DHT22;9179;50.968;3.134;2023-03-29T07:12:56;13.40;99.90
18105;DHT22;9179;50.968;3.134;2023-03-29T07:15:24;13.30;99.90
18105;DHT22;9179;50.968;3.134;2023-03-29T07:17:52;13.50;99.90
18105;DHT22;9179;50.968;3.134;2023-03-29T07:20:20;13.60;99.90
18105;DHT22;9179;50.968;3.134;2023-03-29T07:22:48;13.60;99.90
18105;DHT22;9179;50.968;3.134;2023-03-29T07:25:17;13.60;99.90
18105;DHT22;9179;50.968;3.134;2023-03-29T07:27:45;13.50;99.90
18105;DHT22;9179;50.968;3.134;2023-03-29T07:30:15;13.50;99.90
18105;DHT22;9179;50.968;3.134;2023-03-29T07:32:44;13.30;99.90
18105;DHT22;9179;50.968;3.134;2023-03-29T07:35:13;13.40;99.90
18105;DHT22;9179;50.968;3.134;2023-03-29T07:37:44;13.50;99.90
18105;DHT22;9179;50.968;3.134;2023-03-29T07:40:12;13.80;99.90
18105;DHT22;9179;50.968;3.134;2023-03-29T07:42:40;14.30;99.90
18105;DHT22;9179;50.968;3.134;2023-03-29T07:45:09;14.50;99.90
18105;DHT22;9179;50.968;3.134;2023-03-29T07:47:38;15.00;99.90
18105;DHT22;9179;50.968;3.134;2023-03-29T07:50:06;15.20;99.90
18105;DHT22;9179;50.968;3.134;2023-03-29T07:52:34;15.30;99.90
18105;DHT22;9179;50.968;3.134;2023-03-29T07:55:05;15.30;99.90
18105;DHT22;9179;50.968;3.134;2023-03-29T07:57:33;15.30;99.90
18105;DHT22;9179;50.968;3.134;2023-03-29T08:00:00;15.60;99.90
18105;DHT22;9179;50.968;3.134;2023-03-29T08:02:35;15.50;99.90
18105;DHT22;9179;50.968;3.134;2023-03-29T08:05:02;15.70;99.90
18105;DHT22;9179;50.968;3.134;2023-03-29T08:07:29;16.10;99.90
18105;DHT22;9179;50.968;3.134;2023-03-29T08:09:56;16.20;99.90
18105;DHT22;9179;50.968;3.134;2023-03-29T08:12:25;16.10;99.90
18105;DHT22;9179;50.968;3.134;2023-03-29T08:14:52;16.00;99.90
18105;DHT22;9179;50.968;3.134;2023-03-29T08:17:19;16.00;99.90
18105;DHT22;9179;50.968;3.134;2023-03-29T08:19:45;15.90;99.90
18105;DHT22;9179;50.968;3.134;2023-03-29T08:22:12;16.20;99.90
18105;DHT22;9179;50.968;3.134;2023-03-29T08:24:40;16.20;99.90
18105;DHT22;9179;50.968;3.134;2023-03-29T08:27:07;16.10;99.90
18105;DHT22;9179;50.968;3.134;2023-03-29T08:29:35;16.40;99.90
18105;DHT22;9179;50.968;3.134;2023-03-29T08:32:02;16.90;99.90
18105;DHT22;9179;50.968;3.134;2023-03-29T08:34:29;17.40;99.90
18105;DHT22;9179;50.968;3.134;2023-03-29T08:36:56;17.80;99.90
18105;DHT22;9179;50.968;3.134;2023-03-29T08:39:23;18.20;99.90
18105;DHT22;9179;50.968;3.134;2023-03-29T08:41:58;18.00;99.90
18105;DHT22;9179;50.968;3.134;2023-03-29T08:44:47;18.30;99.90
18105;DHT22;9179;50.968;3.134;2023-03-29T08:47:21;18.80;99.90
18105;DHT22;9179;50.968;3.134;2023-03-29T08:49:54;19.20;99.90
18105;DHT22;9179;50.968;3.134;2023-03-29T08:52:30;19.60;99.90
18105;DHT22;9179;50.968;3.134;2023-03-29T08:54:58;19.70;99.90
18105;DHT22;9179;50.968;3.134;2023-03-29T08:57:29;20.10;99.90
18105;DHT22;9179;50.968;3.134;2023-03-29T09:00:00;20.80;99.90
18105;DHT22;9179;50.968;3.134;2023-03-29T09:02:32;20.60;99.90
18105;DHT22;9179;50.968;3.134;2023-03-29T09:05:06;19.90;99.90
18105;DHT22;9179;50.968;3.134;2023-03-29T09:07:34;19.60;99.90
18105;DHT22;9179;50.968;3.134;2023-03-29T09:10:01;19.60;99.90
18105;DHT22;9179;50.968;3.134;2023-03-29T09:12:39;20.30;99.90
18105;DHT22;9179;50.968;3.134;2023-03-29T09:15:14;20.00;99.90
18105;DHT22;9179;50.968;3.134;2023-03-29T09:18:00;20.10;99.90
18105;DHT22;9179;50.968;3.134;2023-03-29T09:20:37;19.90;99.90
18105;DHT22;9179;50.968;3.134;2023-03-29T09:23:20;19.60;99.90
18105;DHT22;9179;50.968;3.134;2023-03-29T09:25:55;19.90;99.90
18105;DHT22;9179;50.968;3.134;2023-03-29T09:28:29;20.10;99.90
18105;DHT22;9179;50.968;3.134;2023-03-29T09:31:03;20.40;99.90
18105;DHT22;9179;50.968;3.134;2023-03-29T09:33:35;20.60;99.90
18105;DHT22;9179;50.968;3.134;2023-03-29T09:36:10;21.10;99.90
18105;DHT22;9179;50.968;3.134;2023-03-29T09:38:40;21.70;99.90
18105;DHT22;9179;50.968;3.134;2023-03-29T09:41:17;21.60;99.90
18105;DHT22;9179;50.968;3.134;2023-03-29T09:43:46;21.40;99.90
18105;DHT22;9179;50.968;3.134;2023-03-29T09:46:20;21.30;99.90
18105;DHT22;9179;50.968;3.134;2023-03-29T09:48:49;20.60;99.90
18105;DHT22;9179;50.968;3.134;2023-03-29T09:51:18;20.00;99.90
18105;DHT22;9179;50.968;3.134;2023-03-29T09:53:47;19.60;99.90
18105;DHT22;9179;50.968;3.134;2023-03-29T09:56:15;19.40;99.90
18105;DHT22;9179;50.968;3.134;2023-03-29T09:58:43;19.30;99.90
18105;DHT22;9179;50.968;3.134;2023-03-29T10:01:14;19.30;99.90
18105;DHT22;9179;50.968;3.134;2023-03-29T10:03:47;19.70;99.90
18105;DHT22;9179;50.968;3.134;2023-03-29T10:06:15;20.20;99.90
18105;DHT22;9179;50.968;3.134;2023-03-29T10:08:46;20.80;99.90
18105;DHT22;9179;50.968;3.134;2023-03-29T10:11:19;21.30;99.90
18105;DHT22;9179;50.968;3.134;2023-03-29T10:13:49;21.60;99.90
18105;DHT22;9179;50.968;3.134;2023-03-29T10:16:21;21.60;99.90
18105;DHT22;9179;50.968;3.134;2023-03-29T10:18:50;21.40;99.90
18105;DHT22;9179;50.968;3.134;2023-03-29T10:21:19;21.40;99.90
18105;DHT22;9179;50.968;3.134;2023-03-29T10:23:47;21.20;99.90
18105;DHT22;9179;50.968;3.134;2023-03-29T10:26:22;21.10;99.90
18105;DHT22;9179;50.968;3.134;2023-03-29T10:28:51;20.70;99.90
18105;DHT22;9179;50.968;3.134;2023-03-29T10:31:20;20.50;99.90
18105;DHT22;9179;50.968;3.134;2023-03-29T10:33:55;20.50;99.90
18105;DHT22;9179;50.968;3.134;2023-03-29T10:36:25;20.70;99.90
18105;DHT22;9179;50.968;3.134;2023-03-29T10:38:56;20.70;99.90
18105;DHT22;9179;50.968;3.134;2023-03-29T10:41:25;20.70;99.90
18105;DHT22;9179;50.968;3.134;2023-03-29T10:43:53;20.80;99.90
18105;DHT22;9179;50.968;3.134;2023-03-29T10:46:22;21.10;99.90
18105;DHT22;9179;50.968;3.134;2023-03-29T10:48:58;21.20;99.90
18105;DHT22;9179;50.968;3.134;2023-03-29T10:51:27;21.50;99.90
18105;DHT22;9179;50.968;3.134;2023-03-29T10:53:56;21.00;99.90
18105;DHT22;9179;50.968;3.134;2023-03-29T10:56:31;20.90;99.90
18105;DHT22;9179;50.968;3.134;2023-03-29T10:59:16;21.20;99.90
18105;DHT22;9179;50.968;3.134;2023-03-29T11:04:42;21.80;99.90
18105;DHT22;9179;50.968;3.134;2023-03-29T11:07:32;22.40;99.90
18105;DHT22;9179;50.968;3.134;2023-03-29T11:10:18;23.20;99.90
18105;DHT22;9179;50.968;3.134;2023-03-29T11:12:55;23.30;99.90
18105;DHT22;9179;50.968;3.134;2023-03-29T11:15:34;23.30;99.90
18105;DHT22;9179;50.968;3.134;2023-03-29T11:18:23;23.20;99.90
18105;DHT22;9179;50.968;3.134;2023-03-29T11:21:02;22.90;99.90
18105;DHT22;9179;50.968;3.134;2023-03-29T11:23:39;22.70;99.90
18105;DHT22;9179;50.968;3.134;2023-03-29T11:26:14;22.80;99.90
18105;DHT22;9179;50.968;3.134;2023-03-29T11:28:49;23.10;99.90
18105;DHT22;9179;50.968;3.134;2023-03-29T11:31:28;22.90;99.90
18105;DHT22;9179;50.968;3.134;2023-03-29T11:34:12;22.70;99.90
18105;DHT22;9179;50.968;3.134;2023-03-29T11:36:49;23.40;99.90
18105;DHT22;9179;50.968;3.134;2023-03-29T11:39:24;24.50;99.90
18105;DHT22;9179;50.968;3.134;2023-03-29T11:41:56;24.70;99.90
18105;DHT22;9179;50.968;3.134;2023-03-29T11:44:27;24.20;99.90
18105;DHT22;9179;50.968;3.134;2023-03-29T11:46:57;23.70;99.90
18105;DHT22;9179;50.968;3.134;2023-03-29T11:49:28;22.80;99.90
18105;DHT22;9179;50.968;3.134;2023-03-29T11:52:02;22.40;99.90
18105;DHT22;9179;50.968;3.134;2023-03-29T11:54:34;22.20;99.90
18105;DHT22;9179;50.968;3.134;2023-03-29T11:57:09;22.50;99.90
18105;DHT22;9179;50.968;3.134;2023-03-29T11:59:42;22.80;99.90
18105;DHT22;9179;50.968;3.134;2023-03-29T12:02:16;23.90;99.90
18105;DHT22;9179;50.968;3.134;2023-03-29T12:04:47;25.10;99.90
18105;DHT22;9179;50.968;3.134;2023-03-29T12:07:21;26.10;99.90
18105;DHT22;9179;50.968;3.134;2023-03-29T12:09:51;26.80;99.90
18105;DHT22;9179;50.968;3.134;2023-03-29T12:12:22;26.30;99.90
18105;DHT22;9179;50.968;3.134;2023-03-29T12:14:57;25.60;99.90
18105;DHT22;9179;50.968;3.134;2023-03-29T12:17:29;24.50;99.90
18105;DHT22;9179;50.968;3.134;2023-03-29T12:20:14;23.60;99.90
18105;DHT22;9179;50.968;3.134;2023-03-29T12:22:45;22.90;99.90
18105;DHT22;9179;50.968;3.134;2023-03-29T12:25:17;22.50;99.90
18105;DHT22;9179;50.968;3.134;2023-03-29T12:27:54;22.30;99.90
18105;DHT22;9179;50.968;3.134;2023-03-29T12:30:35;22.10;99.90
18105;DHT22;9179;50.968;3.134;2023-03-29T12:33:30;21.80;99.90
18105;DHT22;9179;50.968;3.134;2023-03-29T12:36:17;21.50;99.90
18105;DHT22;9179;50.968;3.134;2023-03-29T12:38:51;21.20;99.90
18105;DHT22;9179;50.968;3.134;2023-03-29T12:41:20;21.40;99.90
18105;DHT22;9179;50.968;3.134;2023-03-29T12:43:48;21.90;99.90
18105;DHT22;9179;50.968;3.134;2023-03-29T12:46:17;22.00;99.90
18105;DHT22;9179;50.968;3.134;2023-03-29T12:48:46;21.80;99.90
18105;DHT22;9179;50.968;3.134;2023-03-29T12:51:16;22.10;99.90
18105;DHT22;9179;50.968;3.134;2023-03-29T12:53:48;22.30;99.90
18105;DHT22;9179;50.968;3.134;2023-03-29T12:56:18;22.70;99.90
18105;DHT22;9179;50.968;3.134;2023-03-29T12:59:04;23.00;99.90
18105;DHT22;9179;50.968;3.134;2023-03-29T13:01:33;23.10;99.90
18105;DHT22;9179;50.968;3.134;2023-03-29T13:04:19;22.80;99.90
18105;DHT22;9179;50.968;3.134;2023-03-29T13:06:57;22.80;99.90
18105;DHT22;9179;50.968;3.134;2023-03-29T13:09:31;22.80;99.90
18105;DHT22;9179;50.968;3.134;2023-03-29T13:12:06;22.50;99.90
18105;DHT22;9179;50.968;3.134;2023-03-29T13:14:38;22.20;99.90
18105;DHT22;9179;50.968;3.134;2023-03-29T13:17:23;22.10;99.90
18105;DHT22;9179;50.968;3.134;2023-03-29T13:20:02;21.90;99.90
18105;DHT22;9179;50.968;3.134;2023-03-29T13:22:41;21.60;99.90
18105;DHT22;9179;50.968;3.134;2023-03-29T13:25:24;21.50;99.90
18105;DHT22;9179;50.968;3.134;2023-03-29T13:27:59;21.50;99.90
18105;DHT22;9179;50.968;3.134;2023-03-29T13:30:34;21.70;99.90
18105;DHT22;9179;50.968;3.134;2023-03-29T13:33:17;21.60;99.90
18105;DHT22;9179;50.968;3.134;2023-03-29T13:35:53;21.50;99.90
18105;DHT22;9179;50.968;3.134;2023-03-29T13:38:24;21.40;99.90
18105;DHT22;9179;50.968;3.134;2023-03-29T13:41:00;21.80;99.90
18105;DHT22;9179;50.968;3.134;2023-03-29T13:43:35;21.90;99.90
18105;DHT22;9179;50.968;3.134;2023-03-29T13:46:15;22.20;99.90
18105;DHT22;9179;50.968;3.134;2023-03-29T13:48:56;22.40;99.90
18105;DHT22;9179;50.968;3.134;2023-03-29T13:51:39;22.50;99.90
18105;DHT22;9179;50.968;3.134;2023-03-29T13:54:14;22.70;99.90
18105;DHT22;9179;50.968;3.134;2023-03-29T13:57:04;22.70;99.90
18105;DHT22;9179;50.968;3.134;2023-03-29T13:59:39;22.80;99.90
18105;DHT22;9179;50.968;3.134;2023-03-29T14:02:14;22.70;99.90
18105;DHT22;9179;50.968;3.134;2023-03-29T14:04:45;22.60;99.90
18105;DHT22;9179;50.968;3.134;2023-03-29T14:07:13;22.90;99.90
18105;DHT22;9179;50.968;3.134;2023-03-29T14:09:43;22.90;99.90
18105;DHT22;9179;50.968;3.134;2023-03-29T14:12:13;23.10;99.90
18105;DHT22;9179;50.968;3.134;2023-03-29T14:14:43;23.30;99.90
18105;DHT22;9179;50.968;3.134;2023-03-29T14:17:15;23.50;99.90
18105;DHT22;9179;50.968;3.134;2023-03-29T14:19:44;23.60;99.90
18105;DHT22;9179;50.968;3.134;2023-03-29T14:22:14;23.40;99.90
18105;DHT22;9179;50.968;3.134;2023-03-29T14:24:46;23.50;99.90
18105;DHT22;9179;50.968;3.134;2023-03-29T14:27:15;23.50;99.90
18105;DHT22;9179;50.968;3.134;2023-03-29T14:29:45;23.60;99.90
18105;DHT22;9179;50.968;3.134;2023-03-29T14:32:14;23.80;99.90
18105;DHT22;9179;50.968;3.134;2023-03-29T14:34:42;23.60;99.90
18105;DHT22;9179;50.968;3.134;2023-03-29T14:37:10;23.30;99.90
18105;DHT22;9179;50.968;3.134;2023-03-29T14:39:38;23.00;99.90
18105;DHT22;9179;50.968;3.134;2023-03-29T14:42:13;23.00;99.90
18105;DHT22;9179;50.968;3.134;2023-03-29T14:44:43;23.20;99.90
18105;DHT22;9179;50.968;3.134;2023-03-29T14:47:16;23.00;99.90
18105;DHT22;9179;50.968;3.134;2023-03-29T14:49:44;22.70;99.90
18105;DHT22;9179;50.968;3.134;2023-03-29T14:52:12;22.60;99.90
18105;DHT22;9179;50.968;3.134;2023-03-29T14:54:44;22.40;99.90
18105;DHT22;9179;50.968;3.134;2023-03-29T14:57:14;22.20;99.90
18105;DHT22;9179;50.968;3.134;2023-03-29T14:59:50;22.20;99.90
18105;DHT22;9179;50.968;3.134;2023-03-29T15:02:25;21.90;99.90
18105;DHT22;9179;50.968;3.134;2023-03-29T15:04:59;21.60;99.90
18105;DHT22;9179;50.968;3.134;2023-03-29T15:07:30;21.50;99.90
18105;DHT22;9179;50.968;3.134;2023-03-29T15:09:58;21.30;99.90
18105;DHT22;9179;50.968;3.134;2023-03-29T15:12:28;21.30;99.90
18105;DHT22;9179;50.968;3.134;2023-03-29T15:14:58;21.40;99.90
18105;DHT22;9179;50.968;3.134;2023-03-29T15:17:30;21.20;99.90
18105;DHT22;9179;50.968;3.134;2023-03-29T15:20:02;21.00;99.90
18105;DHT22;9179;50.968;3.134;2023-03-29T15:22:36;21.00;99.90
18105;DHT22;9179;50.968;3.134;2023-03-29T15:25:13;20.90;99.90
18105;DHT22;9179;50.968;3.134;2023-03-29T15:27:42;21.00;99.90
18105;DHT22;9179;50.968;3.134;2023-03-29T15:30:13;20.90;99.90
18105;DHT22;9179;50.968;3.134;2023-03-29T15:32:41;20.80;99.90
18105;DHT22;9179;50.968;3.134;2023-03-29T15:35:20;20.70;99.90
18105;DHT22;9179;50.968;3.134;2023-03-29T15:37:48;20.60;99.90
18105;DHT22;9179;50.968;3.134;2023-03-29T15:40:17;20.60;99.90
18105;DHT22;9179;50.968;3.134;2023-03-29T15:42:44;20.50;99.90
18105;DHT22;9179;50.968;3.134;2023-03-29T15:45:16;20.40;99.90
18105;DHT22;9179;50.968;3.134;2023-03-29T15:47:43;20.40;99.90
18105;DHT22;9179;50.968;3.134;2023-03-29T15:50:11;20.50;99.90
18105;DHT22;9179;50.968;3.134;2023-03-29T15:52:40;20.50;99.90
18105;DHT22;9179;50.968;3.134;2023-03-29T15:55:08;20.40;99.90
18105;DHT22;9179;50.968;3.134;2023-03-29T15:57:35;20.50;99.90
18105;DHT22;9179;50.968;3.134;2023-03-29T16:00:03;20.50;99.90
18105;DHT22;9179;50.968;3.134;2023-03-29T16:02:33;20.40;99.90
18105;DHT22;9179;50.968;3.134;2023-03-29T16:05:01;20.30;99.90
18105;DHT22;9179;50.968;3.134;2023-03-29T16:07:28;20.40;99.90
18105;DHT22;9179;50.968;3.134;2023-03-29T16:09:55;20.50;99.90